Time;durP1;ratioP1;P1;durP2;ratioP2;P2;SDS_P1;SDS_P2;PMS_P1;PMS_P2;Temp;Humidity;BMP_temperature;BMP_pressure;BME280_temperature;BME280_humidity;BME280_pressure;Samples;Min_cycle;Max_cycle;Signal;HPM_P1;HPM_P2
2024/01/28 00:00:35;;;;;;;4.20;2.93;;;24.30;53.50;;;;;;5036852;28;20440;-91
2024/01/28 00:03:02;;;;;;;4.20;2.93;;;24.20;53.40;;;;;;5037363;28;20445;-91
2024/01/28 00:05:31;;;;;;;4.40;2.67;;;24.20;53.40;;;;;;5037078;28;20473;-91
2024/01/28 00:07:57;;;;;;;3.40;2.73;;;24.10;53.40;;;;;;5037667;28;20482;-91
2024/01/28 00:10:24;;;;;;;4.60;2.40;;;24.20;53.40;;;;;;5036834;28;20542;-91
2024/01/28 00:12:51;;;;;;;2.93;2.50;;;24.10;53.40;;;;;;5037106;28;20439;-91
2024/01/28 00:15:18;;;;;;;3.83;2.70;;;24.10;53.40;;;;;;5036991;28;20426;-92
2024/01/28 00:17:45;;;;;;;4.13;3.03;;;24.10;53.40;;;;;;5037450;28;20430;-90
2024/01/28 00:20:12;;;;;;;4.33;3.07;;;24.10;54.00;;;;;;5036971;28;20545;-91
2024/01/28 00:22:40;;;;;;;5.13;3.40;;;24.10;53.40;;;;;;5036822;28;20793;-91
2024/01/28 00:25:08;;;;;;;4.30;3.10;;;24.10;53.40;;;;;;5037173;28;20470;-91
2024/01/28 00:27:35;;;;;;;3.83;3.07;;;24.10;53.40;;;;;;5036828;28;20445;-91
2024/01/28 00:30:02;;;;;;;3.70;2.87;;;24.10;53.40;;;;;;5037189;28;20925;-91
2024/01/28 00:32:28;;;;;;;4.00;3.13;;;24.00;53.30;;;;;;5036824;28;20522;-90
2024/01/28 00:34:55;;;;;;;3.23;2.63;;;24.00;53.30;;;;;;5036647;28;20546;-91
2024/01/28 00:37:23;;;;;;;3.40;2.57;;;24.10;53.40;;;;;;5037322;28;20908;-91
2024/01/28 00:39:52;;;;;;;4.00;2.83;;;24.00;53.30;;;;;;5036551;28;20439;-90
2024/01/28 00:42:18;;;;;;;3.60;2.80;;;24.00;53.40;;;;;;5036709;28;20445;-90
2024/01/28 00:44:45;;;;;;;3.77;2.50;;;24.00;54.00;;;;;;5036287;28;20985;-90
2024/01/28 00:47:12;;;;;;;3.70;2.87;;;24.00;53.40;;;;;;5035623;28;20493;-91
2024/01/28 00:49:39;;;;;;;4.40;3.03;;;24.00;53.40;;;;;;5035466;28;20469;-90
2024/01/28 00:52:07;;;;;;;3.63;2.67;;;24.00;53.30;;;;;;5036234;28;20444;-91
2024/01/28 00:54:35;;;;;;;4.40;3.27;;;24.00;53.30;;;;;;5035518;28;20531;-90
2024/01/28 00:57:04;;;;;;;3.40;2.73;;;24.00;53.20;;;;;;5035465;28;20434;-91
2024/01/28 00:59:33;;;;;;;3.80;3.13;;;24.00;53.30;;;;;;5035638;28;20435;-90
2024/01/28 01:02:00;;;;;;;4.07;3.10;;;24.00;53.30;;;;;;5035703;28;20925;-90
2024/01/28 01:04:26;;;;;;;4.73;2.87;;;24.00;53.20;;;;;;5035520;28;20797;-89
2024/01/28 01:06:53;;;;;;;3.73;3.10;;;24.00;53.30;;;;;;5037649;28;20486;-89
2024/01/28 01:09:20;;;;;;;3.67;2.97;;;24.00;53.20;;;;;;5036327;28;20442;-90
2024/01/28 01:11:47;;;;;;;3.77;2.60;;;24.00;53.20;;;;;;5035874;28;20434;-90
2024/01/28 01:14:15;;;;;;;3.13;2.47;;;24.00;53.20;;;;;;5035754;28;20443;-90
2024/01/28 01:16:42;;;;;;;4.17;3.60;;;24.00;53.20;;;;;;5027793;28;20445;-91
2024/01/28 01:19:09;;;;;;;3.87;2.67;;;24.10;53.80;;;;;;5035871;28;20451;-90
2024/01/28 01:21:35;;;;;;;3.40;3.10;;;24.00;53.10;;;;;;5035625;28;20949;-90
2024/01/28 01:24:02;;;;;;;3.70;3.00;;;24.00;53.10;;;;;;5035888;28;20445;-90
2024/01/28 01:26:29;;;;;;;3.50;3.10;;;24.00;53.10;;;;;;5039635;28;20462;-89
2024/01/28 01:28:56;;;;;;;3.80;3.40;;;24.00;53.10;;;;;;5059418;28;20453;-90
2024/01/28 01:31:24;;;;;;;3.90;2.70;;;24.00;53.10;;;;;;5059212;28;20437;-89
2024/01/28 01:33:51;;;;;;;4.10;3.57;;;24.00;53.00;;;;;;5037352;28;20453;-90
2024/01/28 01:36:19;;;;;;;4.57;3.40;;;24.00;53.00;;;;;;5035427;28;20452;-90
2024/01/28 01:38:46;;;;;;;3.77;3.37;;;24.00;53.10;;;;;;5035620;28;20525;-89
2024/01/28 01:41:13;;;;;;;3.40;3.10;;;24.00;53.00;;;;;;5035337;28;20473;-89
2024/01/28 01:43:40;;;;;;;4.83;3.20;;;24.00;53.00;;;;;;5035402;28;20802;-90
2024/01/28 01:46:10;;;;;;;4.33;3.93;;;24.00;52.90;;;;;;5035068;28;20470;-90
2024/01/28 01:48:38;;;;;;;4.30;3.27;;;24.00;53.00;;;;;;5035037;28;20448;-91
2024/01/28 01:51:07;;;;;;;4.17;3.43;;;24.00;52.90;;;;;;5034835;28;20481;-90
2024/01/28 01:53:35;;;;;;;3.67;3.20;;;24.00;53.00;;;;;;5044470;28;20474;-90
2024/01/28 01:56:02;;;;;;;4.20;3.07;;;24.00;53.00;;;;;;5074888;28;20441;-90
2024/01/28 01:58:30;;;;;;;3.50;2.83;;;24.00;52.90;;;;;;5074708;28;20448;-91
2024/01/28 02:00:58;;;;;;;4.07;3.67;;;24.00;52.90;;;;;;5074699;28;20429;-91
2024/01/28 02:03:26;;;;;;;3.97;3.37;;;24.00;52.90;;;;;;5074160;28;20437;-90
2024/01/28 02:05:54;;;;;;;4.60;3.60;;;24.00;52.90;;;;;;5074804;28;20512;-90
2024/01/28 02:08:22;;;;;;;4.23;3.60;;;23.90;52.80;;;;;;5074713;28;20447;-89
2024/01/28 02:10:48;;;;;;;4.70;3.90;;;23.90;52.80;;;;;;5074555;28;20450;-89
2024/01/28 02:13:15;;;;;;;4.53;3.43;;;23.90;52.80;;;;;;5075057;28;20788;-91
2024/01/28 02:15:42;;;;;;;4.00;3.43;;;23.90;53.30;;;;;;5074711;28;20435;-90
2024/01/28 02:18:09;;;;;;;7.50;3.87;;;23.90;52.80;;;;;;5074735;28;20443;-90
2024/01/28 02:20:35;;;;;;;4.07;3.53;;;23.90;52.80;;;;;;5074148;28;20818;-90
2024/01/28 02:23:05;;;;;;;4.10;3.40;;;23.90;52.80;;;;;;5074996;28;20436;-90
2024/01/28 02:25:34;;;;;;;5.20;3.60;;;23.90;52.90;;;;;;5074430;28;20433;-90
2024/01/28 02:28:00;;;;;;;4.77;3.60;;;23.90;52.70;;;;;;5074810;28;20814;-90
2024/01/28 02:30:27;;;;;;;4.70;3.70;;;23.90;52.70;;;;;;5074690;28;20439;-89
2024/01/28 02:32:54;;;;;;;4.70;4.00;;;24.00;52.70;;;;;;5074672;28;20941;-90
2024/01/28 02:35:21;;;;;;;3.50;3.00;;;23.90;52.70;;;;;;5074776;28;20468;-90
2024/01/28 02:37:48;;;;;;;4.47;4.07;;;23.90;52.80;;;;;;5074469;28;21099;-89
2024/01/28 02:40:15;;;;;;;4.47;3.83;;;23.90;52.70;;;;;;5074190;28;20436;-89
2024/01/28 02:42:44;;;;;;;3.60;3.30;;;23.90;52.70;;;;;;5074388;28;20440;-91
2024/01/28 02:45:10;;;;;;;4.20;3.40;;;24.00;52.80;;;;;;5074363;28;20445;-90
2024/01/28 02:47:37;;;;;;;4.33;3.67;;;23.90;52.70;;;;;;5074352;28;20963;-90
2024/01/28 02:50:05;;;;;;;4.97;3.83;;;23.80;52.60;;;;;;5081514;28;20524;-90
2024/01/28 02:52:31;;;;;;;4.40;2.60;;;23.90;52.70;;;;;;5097887;28;20452;-89
2024/01/28 02:54:58;;;;;;;4.53;3.73;;;23.90;52.70;;;;;;5097865;28;20483;-89
2024/01/28 02:57:25;;;;;;;3.53;3.20;;;23.90;52.70;;;;;;5092051;28;20480;-91
2024/01/28 02:59:53;;;;;;;4.23;3.40;;;23.90;52.70;;;;;;5075630;28;20471;-91
2024/01/28 03:02:20;;;;;;;3.93;3.50;;;23.90;52.70;;;;;;5074909;28;20480;-89
2024/01/28 03:04:47;;;;;;;4.47;3.30;;;23.90;52.70;;;;;;5074343;28;20942;-89
2024/01/28 03:07:14;;;;;;;4.13;3.47;;;23.90;52.70;;;;;;5074368;28;20502;-91
2024/01/28 03:09:41;;;;;;;3.90;3.37;;;23.90;52.70;;;;;;5074139;28;20436;-90
2024/01/28 03:12:08;;;;;;;4.63;3.60;;;23.90;52.70;;;;;;5073848;28;20797;-91
2024/01/28 03:14:35;;;;;;;4.37;3.97;;;23.90;52.70;;;;;;5074332;28;20432;-90
2024/01/28 03:17:03;;;;;;;4.40;3.30;;;23.90;52.60;;;;;;5077937;28;20490;-91
2024/01/28 03:19:32;;;;;;;3.70;3.30;;;23.80;52.50;;;;;;5078305;28;20459;-90
2024/01/28 03:21:59;;;;;;;3.90;3.10;;;23.90;52.60;;;;;;5077888;28;20428;-91
2024/01/28 03:24:26;;;;;;;4.10;3.23;;;23.90;52.60;;;;;;5077411;28;20947;-91
2024/01/28 03:26:52;;;;;;;4.47;3.73;;;23.80;52.50;;;;;;5077684;28;20508;-91
2024/01/28 03:29:20;;;;;;;3.93;3.13;;;23.80;52.40;;;;;;5077885;28;20931;-91
2024/01/28 03:31:47;;;;;;;3.50;3.20;;;23.80;52.60;;;;;;5077496;28;20444;-91
2024/01/28 03:34:15;;;;;;;4.00;3.13;;;23.80;52.50;;;;;;5077720;28;20444;-91
2024/01/28 03:36:42;;;;;;;4.20;3.60;;;23.80;52.50;;;;;;5077132;28;20523;-91
2024/01/28 03:39:09;;;;;;;5.50;3.70;;;23.90;52.60;;;;;;5077512;28;20448;-90
2024/01/28 03:41:36;;;;;;;4.87;3.73;;;23.80;52.50;;;;;;5077395;28;20804;-91
2024/01/28 03:44:03;;;;;;;5.67;4.10;;;23.90;52.60;;;;;;5077750;28;20462;-91
2024/01/28 03:46:30;;;;;;;3.50;3.00;;;23.80;52.60;;;;;;5077018;28;20942;-90
2024/01/28 03:48:56;;;;;;;3.23;2.77;;;23.80;52.50;;;;;;5076943;28;20448;-91
2024/01/28 03:51:24;;;;;;;3.30;2.90;;;23.80;52.50;;;;;;5077485;28;20784;-91
2024/01/28 03:53:51;;;;;;;4.17;3.03;;;23.80;52.40;;;;;;5076982;28;20475;-91
2024/01/28 03:56:18;;;;;;;3.50;3.20;;;23.80;52.50;;;;;;5076966;28;20539;-91
2024/01/28 03:58:45;;;;;;;3.60;3.10;;;23.80;52.50;;;;;;5077014;28;21012;-91
2024/01/28 04:01:12;;;;;;;3.20;2.63;;;23.80;52.50;;;;;;5077029;28;20464;-91
2024/01/28 04:03:39;;;;;;;5.03;2.90;;;23.80;52.40;;;;;;5077532;28;20441;-91
2024/01/28 04:06:06;;;;;;;4.97;3.43;;;23.80;52.40;;;;;;5076827;28;20432;-92
2024/01/28 04:08:34;;;;;;;3.70;3.10;;;23.70;52.40;;;;;;5076808;28;20484;-91
2024/01/28 04:11:02;;;;;;;3.93;3.00;;;23.80;52.40;;;;;;5077083;28;20437;-90
2024/01/28 04:13:29;;;;;;;4.13;3.50;;;23.70;52.40;;;;;;5077684;28;20440;-91
2024/01/28 04:15:56;;;;;;;3.23;2.87;;;23.80;52.40;;;;;;5077062;28;20436;-90
2024/01/28 04:18:22;;;;;;;3.20;2.83;;;23.80;52.40;;;;;;5077240;28;20444;-90
2024/01/28 04:20:49;;;;;;;3.40;2.50;;;23.70;52.40;;;;;;5077122;28;20460;-90
2024/01/28 04:23:16;;;;;;;3.63;3.20;;;23.80;52.40;;;;;;5077182;28;20527;-90
2024/01/28 04:25:44;;;;;;;4.70;3.30;;;23.70;52.30;;;;;;5076603;28;20445;-91
2024/01/28 04:28:11;;;;;;;4.37;3.33;;;23.70;52.30;;;;;;5075798;28;20488;-90
2024/01/28 04:30:38;;;;;;;3.97;3.10;;;23.70;52.30;;;;;;5076456;28;20443;-91
2024/01/28 04:33:05;;;;;;;3.50;3.03;;;23.70;52.30;;;;;;5076703;28;20443;-90
2024/01/28 04:35:32;;;;;;;3.37;2.90;;;23.70;52.30;;;;;;5076557;28;20528;-91
2024/01/28 04:37:58;;;;;;;4.70;3.20;;;23.70;52.40;;;;;;5076282;28;20814;-91
2024/01/28 04:40:25;;;;;;;3.67;2.77;;;23.70;52.30;;;;;;5080843;28;20427;-90
2024/01/28 04:42:53;;;;;;;3.70;3.13;;;23.70;52.30;;;;;;5100276;28;20427;-90
2024/01/28 04:45:20;;;;;;;2.80;2.33;;;23.70;52.30;;;;;;5099558;28;20487;-90
2024/01/28 04:47:47;;;;;;;3.47;2.50;;;23.70;52.40;;;;;;5076541;28;20488;-90
2024/01/28 04:50:14;;;;;;;3.70;3.00;;;23.70;52.30;;;;;;5076241;28;20539;-91
2024/01/28 04:52:41;;;;;;;3.50;3.00;;;23.70;52.20;;;;;;5076474;28;20437;-90
2024/01/28 04:55:09;;;;;;;3.60;2.60;;;23.70;52.20;;;;;;5076471;28;20563;-90
2024/01/28 04:57:36;;;;;;;3.13;2.83;;;23.70;52.20;;;;;;5076493;28;20444;-90
2024/01/28 05:00:06;;;;;;;4.37;3.10;;;23.70;52.20;;;;;;5076698;28;20432;-91
2024/01/28 05:02:32;;;;;;;3.10;2.80;;;23.70;52.20;;;;;;5076225;28;20482;-90
2024/01/28 05:04:59;;;;;;;3.17;2.87;;;23.70;52.10;;;;;;5080709;28;20438;-90
2024/01/28 05:07:26;;;;;;;2.77;2.30;;;23.80;52.20;;;;;;5077125;28;20480;-90
2024/01/28 05:09:53;;;;;;;3.57;2.90;;;23.80;52.10;;;;;;5076678;28;20769;-91
2024/01/28 05:12:20;;;;;;;2.90;2.57;;;23.80;52.20;;;;;;5076202;28;20451;-91
2024/01/28 05:14:48;;;;;;;3.80;2.77;;;23.80;52.20;;;;;;5077456;28;20441;-90
2024/01/28 05:17:16;;;;;;;3.73;2.80;;;23.80;52.10;;;;;;5076943;28;20440;-91
2024/01/28 05:19:43;;;;;;;2.80;2.47;;;23.80;52.00;;;;;;5075473;28;21005;-90
2024/01/28 05:22:10;;;;;;;5.37;3.33;;;23.80;52.00;;;;;;5075660;28;20475;-91
2024/01/28 05:24:36;;;;;;;3.10;2.73;;;23.80;52.00;;;;;;5075673;28;20436;-90
2024/01/28 05:27:04;;;;;;;2.87;2.50;;;23.80;52.00;;;;;;5075692;28;20993;-89
2024/01/28 05:29:31;;;;;;;3.30;2.60;;;23.80;52.00;;;;;;5075951;28;20449;-90
2024/01/28 05:31:58;;;;;;;3.53;3.03;;;23.80;52.00;;;;;;5075178;28;20539;-89
2024/01/28 05:34:26;;;;;;;2.83;2.27;;;23.80;52.10;;;;;;5075597;28;20930;-89
2024/01/28 05:36:53;;;;;;;3.20;2.57;;;23.80;52.00;;;;;;5075381;28;20441;-90
2024/01/28 05:39:20;;;;;;;2.80;2.50;;;23.80;52.00;;;;;;5075215;28;20444;-90
2024/01/28 05:41:46;;;;;;;3.03;2.57;;;23.90;52.00;;;;;;5075202;28;20503;-88
2024/01/28 05:44:13;;;;;;;2.70;2.30;;;23.80;52.00;;;;;;5075350;28;20448;-91
2024/01/28 05:46:40;;;;;;;3.93;3.00;;;23.80;51.90;;;;;;5074726;28;20447;-90
2024/01/28 05:49:10;;;;;;;3.10;2.50;;;23.90;52.00;;;;;;5074950;28;20492;-91
2024/01/28 05:51:39;;;;;;;2.60;2.33;;;23.90;52.00;;;;;;5074380;28;20483;-91
2024/01/28 05:54:06;;;;;;;3.67;2.83;;;23.90;51.90;;;;;;5075071;28;20464;-91
2024/01/28 05:56:33;;;;;;;2.83;2.33;;;23.80;51.90;;;;;;5075273;28;20447;-90
2024/01/28 05:59:00;;;;;;;2.90;2.47;;;23.80;51.90;;;;;;5075018;28;20440;-91
2024/01/28 06:01:26;;;;;;;3.67;2.73;;;23.90;51.90;;;;;;5074625;28;20515;-90
2024/01/28 06:03:53;;;;;;;2.53;2.23;;;23.80;51.90;;;;;;5074472;28;20441;-90
2024/01/28 06:06:20;;;;;;;2.73;2.30;;;23.90;51.90;;;;;;5074843;28;20491;-90
2024/01/28 06:08:48;;;;;;;3.27;2.87;;;23.90;51.90;;;;;;5074843;28;20480;-91
2024/01/28 06:11:15;;;;;;;2.97;2.67;;;23.90;51.90;;;;;;5074553;28;20455;-91
2024/01/28 06:13:42;;;;;;;3.10;2.60;;;23.90;52.50;;;;;;5074241;28;20444;-91
2024/01/28 06:16:08;;;;;;;2.60;2.17;;;23.90;52.50;;;;;;5074586;28;20440;-91
2024/01/28 06:18:43;;;;;;;2.93;2.60;;;23.90;51.80;;;;;;5074846;28;20433;-90
2024/01/28 06:21:10;;;;;;;4.13;3.00;;;23.90;51.90;;;;;;5074437;28;20471;-90
2024/01/28 06:23:36;;;;;;;3.63;2.43;;;23.80;51.80;;;;;;5074587;28;20443;-90
2024/01/28 06:26:05;;;;;;;3.70;2.70;;;23.80;51.80;;;;;;5074189;28;20466;-90
2024/01/28 06:28:32;;;;;;;2.93;2.20;;;23.90;51.90;;;;;;5074152;28;20494;-90
2024/01/28 06:30:59;;;;;;;3.40;3.00;;;23.80;51.90;;;;;;5074816;28;20432;-91
2024/01/28 06:33:26;;;;;;;3.00;2.67;;;23.90;51.90;;;;;;5078060;28;20458;-90
2024/01/28 06:35:53;;;;;;;3.20;2.60;;;23.80;51.80;;;;;;5075534;28;20436;-90
2024/01/28 06:38:20;;;;;;;3.33;2.50;;;23.80;51.80;;;;;;5074959;28;20447;-90
2024/01/28 06:40:46;;;;;;;2.70;2.40;;;23.80;51.70;;;;;;5076111;28;20432;-89
2024/01/28 06:43:17;;;;;;;4.27;2.73;;;23.80;51.70;;;;;;5076269;28;20506;-90
2024/01/28 06:45:45;;;;;;;2.87;2.30;;;23.90;51.80;;;;;;5076114;28;20512;-90
2024/01/28 06:48:13;;;;;;;3.07;2.77;;;23.80;51.70;;;;;;5076242;28;20476;-90
2024/01/28 06:50:40;;;;;;;3.70;2.63;;;23.80;51.70;;;;;;5076378;28;20591;-91
2024/01/28 06:53:07;;;;;;;3.63;2.60;;;23.80;51.70;;;;;;5076362;28;20444;-91
2024/01/28 06:55:33;;;;;;;2.57;2.37;;;23.80;51.80;;;;;;5074465;28;20429;-90
2024/01/28 06:58:01;;;;;;;2.93;2.63;;;23.80;51.70;;;;;;5074895;28;20519;-91
2024/01/28 07:00:31;;;;;;;3.03;2.73;;;23.90;51.70;;;;;;5076720;28;20494;-90
2024/01/28 07:02:58;;;;;;;3.60;2.70;;;23.80;51.60;;;;;;5076434;28;20456;-90
2024/01/28 07:05:26;;;;;;;2.90;2.23;;;23.90;51.70;;;;;;5074581;28;20526;-90
2024/01/28 07:07:52;;;;;;;2.97;2.70;;;23.90;51.60;;;;;;5074699;28;20487;-90
2024/01/28 07:10:19;;;;;;;3.20;2.60;;;23.90;51.70;;;;;;5075351;28;20449;-90
2024/01/28 07:12:46;;;;;;;3.30;2.73;;;23.90;51.70;;;;;;5074799;28;20546;-90
2024/01/28 07:15:13;;;;;;;2.53;2.33;;;23.90;51.70;;;;;;5075078;28;20436;-90
2024/01/28 07:17:41;;;;;;;3.03;2.40;;;23.90;51.60;;;;;;5076837;28;20448;-90
2024/01/28 07:20:09;;;;;;;2.63;2.20;;;23.90;51.60;;;;;;5075294;28;20460;-90
2024/01/28 07:22:37;;;;;;;2.97;2.43;;;23.90;51.60;;;;;;5063612;28;20517;-90
2024/01/28 07:25:04;;;;;;;2.90;2.27;;;23.90;51.60;;;;;;5080105;28;20438;-90
2024/01/28 07:27:31;;;;;;;3.30;2.40;;;23.90;51.50;;;;;;5079402;28;20441;-89
2024/01/28 07:29:58;;;;;;;3.03;2.40;;;23.90;51.60;;;;;;5083985;28;20493;-89
2024/01/28 07:32:24;;;;;;;2.83;2.57;;;23.90;51.60;;;;;;5093512;28;20500;-89
2024/01/28 07:34:53;;;;;;;2.90;2.60;;;23.90;51.60;;;;;;5095218;28;20554;-89
2024/01/28 07:37:20;;;;;;;4.40;2.77;;;24.00;51.60;;;;;;5085869;28;20483;-89
2024/01/28 07:39:47;;;;;;;3.20;2.40;;;24.00;51.60;;;;;;5077008;28;20543;-89
2024/01/28 07:42:14;;;;;;;2.90;2.37;;;23.90;51.50;;;;;;5077462;28;20432;-89
2024/01/28 07:44:40;;;;;;;3.13;2.83;;;23.90;51.50;;;;;;5076744;28;20432;-89
2024/01/28 07:47:07;;;;;;;2.60;2.30;;;23.90;51.50;;;;;;5077245;28;20528;-91
2024/01/28 07:49:34;;;;;;;2.67;2.20;;;23.90;51.50;;;;;;5075510;28;21007;-90
2024/01/28 07:52:02;;;;;;;2.63;2.13;;;23.90;51.50;;;;;;5074662;28;20436;-92
2024/01/28 07:54:29;;;;;;;2.80;2.20;;;23.90;51.50;;;;;;5097456;28;20475;-90
2024/01/28 07:56:57;;;;;;;3.30;2.43;;;23.90;51.50;;;;;;5097643;28;20416;-90
2024/01/28 07:59:24;;;;;;;2.63;2.43;;;23.90;51.50;;;;;;5078363;28;20850;-91
2024/01/28 08:01:51;;;;;;;3.67;2.47;;;23.90;51.40;;;;;;5075721;28;20516;-89
2024/01/28 08:04:20;;;;;;;2.97;2.50;;;24.00;52.20;;;;;;5060087;28;20452;-89
2024/01/28 08:06:47;;;;;;;3.10;2.50;;;24.00;51.50;;;;;;5077966;28;20852;-86
2024/01/28 08:09:15;;;;;;;2.77;2.30;;;24.00;51.50;;;;;;5077362;28;20523;-88
2024/01/28 08:11:42;;;;;;;3.13;2.60;;;23.90;51.40;;;;;;5077394;28;20532;-89
2024/01/28 08:14:09;;;;;;;3.60;2.10;;;24.00;51.40;;;;;;5078022;28;20947;-92
2024/01/28 08:16:36;;;;;;;4.23;2.40;;;24.00;51.40;;;;;;5077912;28;20475;-88
2024/01/28 08:19:04;;;;;;;3.77;2.50;;;24.10;51.50;;;;;;5077107;28;20548;-88
2024/01/28 08:21:31;;;;;;;3.90;3.13;;;24.00;51.60;;;;;;5077346;28;20970;-87
2024/01/28 08:23:58;;;;;;;5.00;3.00;;;24.00;51.70;;;;;;5077693;28;20441;-87
2024/01/28 08:26:26;;;;;;;4.80;3.00;;;24.00;51.60;;;;;;5118695;23;20481;-87
2024/01/28 08:28:56;;;;;;;5.23;3.03;;;24.00;51.60;;;;;;5037557;28;20473;-88
2024/01/28 08:31:23;;;;;;;4.97;3.00;;;23.90;51.50;;;;;;5037475;28;20473;-86
2024/01/28 08:33:50;;;;;;;6.13;2.50;;;24.00;51.60;;;;;;5037619;28;20443;-87
2024/01/28 08:36:17;;;;;;;2.90;2.50;;;24.00;51.60;;;;;;5037331;28;20842;-87
2024/01/28 08:38:43;;;;;;;4.07;3.17;;;24.00;51.70;;;;;;5037363;28;20930;-87
2024/01/28 08:41:11;;;;;;;4.10;2.80;;;24.00;51.70;;;;;;5041462;28;20536;-87
2024/01/28 08:43:40;;;;;;;4.63;3.40;;;24.00;51.80;;;;;;5038980;28;20438;-88
2024/01/28 08:46:07;;;;;;;3.17;2.87;;;24.00;51.80;;;;;;5037847;28;20469;-87
2024/01/28 08:48:34;;;;;;;3.40;2.63;;;24.00;51.90;;;;;;5037654;28;20465;-87
2024/01/28 08:51:01;;;;;;;13.40;3.10;;;24.10;52.00;;;;;;5037409;28;20464;-87
2024/01/28 08:53:29;;;;;;;6.50;2.47;;;24.10;52.00;;;;;;5029820;28;20514;-88
2024/01/28 08:55:56;;;;;;;5.67;2.43;;;24.10;52.10;;;;;;5034422;28;20508;-89
2024/01/28 08:58:23;;;;;;;9.27;3.10;;;24.20;52.00;;;;;;5037083;28;20457;-88
2024/01/28 09:00:51;;;;;;;3.40;2.30;;;24.20;52.00;;;;;;5035897;28;20818;-87
2024/01/28 09:03:18;;;;;;;3.60;2.70;;;24.20;52.00;;;;;;5035580;28;20444;-87
2024/01/28 09:05:44;;;;;;;3.20;2.80;;;24.20;52.60;;;;;;5035372;28;20442;-87
2024/01/28 09:08:11;;;;;;;5.00;3.30;;;24.30;52.10;;;;;;5035017;28;20439;-87
2024/01/28 09:10:38;;;;;;;4.03;3.07;;;24.30;52.00;;;;;;5035212;28;20786;-87
2024/01/28 09:13:05;;;;;;;3.40;2.77;;;24.40;52.10;;;;;;5034795;28;20438;-92
2024/01/28 09:15:32;;;;;;;4.90;2.60;;;24.50;51.80;;;;;;5035449;28;20440;-88
2024/01/28 09:18:00;;;;;;;4.07;2.97;;;24.70;52.00;;;;;;5035182;28;20448;-88
2024/01/28 09:20:27;;;;;;;3.63;2.77;;;24.70;51.70;;;;;;5034833;28;20477;-89
2024/01/28 09:22:54;;;;;;;3.53;2.67;;;24.80;51.80;;;;;;5034467;28;20817;-84
2024/01/28 09:25:21;;;;;;;3.00;2.53;;;24.90;51.80;;;;;;5034204;28;20533;-86
2024/01/28 09:27:48;;;;;;;3.83;2.60;;;24.90;50.40;;;;;;5034081;28;20485;-87
2024/01/28 09:30:15;;;;;;;5.43;3.07;;;24.90;50.30;;;;;;5024410;28;20842;-86
2024/01/28 09:32:41;;;;;;;5.73;2.70;;;25.00;51.20;;;;;;5033199;28;21007;-87
2024/01/28 09:35:10;;;;;;;5.37;2.43;;;25.00;51.80;;;;;;5033711;28;20446;-87
2024/01/28 09:37:36;;;;;;;7.03;3.03;;;25.10;51.20;;;;;;5038229;28;20799;-87
2024/01/28 09:40:03;;;;;;;4.07;3.00;;;25.40;51.30;;;;;;5034800;28;20453;-86
2024/01/28 09:42:38;;;;;;;3.30;2.70;;;25.30;51.20;;;;;;5034358;28;20454;-87
2024/01/28 09:45:06;;;;;;;4.07;2.90;;;25.40;51.10;;;;;;5033838;28;20438;-88
2024/01/28 09:47:35;;;;;;;6.40;2.50;;;25.40;51.10;;;;;;5032664;28;20438;-87
2024/01/28 09:50:04;;;;;;;5.23;2.50;;;25.40;50.80;;;;;;5032280;28;20520;-87
2024/01/28 09:52:32;;;;;;;3.67;2.97;;;25.60;50.90;;;;;;5032557;28;20451;-88
2024/01/28 09:54:59;;;;;;;7.07;2.73;;;25.70;50.80;;;;;;5032563;28;20437;-87
2024/01/28 09:57:26;;;;;;;2.90;2.60;;;25.90;50.80;;;;;;5032614;28;20454;-87
2024/01/28 09:59:54;;;;;;;4.37;3.10;;;26.00;50.60;;;;;;5032685;28;20446;-88
2024/01/28 10:02:23;;;;;;;3.63;2.30;;;26.20;50.60;;;;;;5034048;28;20434;-88
2024/01/28 10:04:49;;;;;;;2.77;2.40;;;26.40;50.40;;;;;;5033910;28;20793;-90
2024/01/28 10:07:16;;;;;;;3.77;2.87;;;26.60;50.80;;;;;;5034064;28;20474;-87
2024/01/28 10:09:45;;;;;;;2.87;2.50;;;26.80;50.10;;;;;;5033702;28;20488;-87
2024/01/28 10:12:12;;;;;;;4.47;2.90;;;27.10;49.90;;;;;;5033905;28;20446;-87
2024/01/28 10:14:39;;;;;;;4.37;3.10;;;27.30;49.80;;;;;;5033745;28;20783;-87
2024/01/28 10:17:06;;;;;;;5.70;2.40;;;27.60;49.50;;;;;;5034067;28;20438;-88
2024/01/28 10:19:33;;;;;;;3.43;2.40;;;27.80;49.20;;;;;;5033487;28;20443;-87
2024/01/28 10:22:00;;;;;;;3.07;2.77;;;28.10;49.00;;;;;;5033374;28;21028;-87
2024/01/28 10:24:27;;;;;;;4.17;2.27;;;28.40;48.60;;;;;;5032938;28;20439;-87
2024/01/28 10:26:57;;;;;;;4.00;2.67;;;28.80;48.30;;;;;;5033484;28;20469;-87
2024/01/28 10:29:25;;;;;;;3.30;2.43;;;29.30;47.90;;;;;;5033405;28;20517;-91
2024/01/28 10:31:52;;;;;;;6.10;2.80;;;29.60;47.40;;;;;;5033523;28;20533;-87
2024/01/28 10:34:19;;;;;;;3.20;2.20;;;29.90;46.90;;;;;;5033624;28;20445;-91
2024/01/28 10:36:48;;;;;;;3.53;2.67;;;30.10;46.90;;;;;;5033359;28;20473;-87
2024/01/28 10:39:17;;;;;;;4.30;2.50;;;30.10;46.80;;;;;;5033361;28;20438;-87
2024/01/28 10:41:45;;;;;;;3.53;2.20;;;29.90;46.80;;;;;;5033227;28;20470;-87
2024/01/28 10:44:15;;;;;;;4.60;2.53;;;29.70;47.00;;;;;;5033165;28;20925;-86
2024/01/28 10:46:44;;;;;;;5.60;2.73;;;29.50;47.30;;;;;;5033212;28;20521;-87
2024/01/28 10:49:12;;;;;;;2.87;1.97;;;29.30;47.70;;;;;;5033221;28;21062;-87
2024/01/28 10:51:40;;;;;;;3.53;2.50;;;29.10;48.10;;;;;;5033447;28;20446;-87
2024/01/28 10:54:08;;;;;;;2.40;2.20;;;28.90;48.40;;;;;;5033025;28;20914;-87
2024/01/28 10:56:36;;;;;;;5.40;2.47;;;28.70;48.60;;;;;;5033288;28;20446;-90
2024/01/28 10:59:03;;;;;;;2.90;2.33;;;28.50;48.90;;;;;;5033225;28;20446;-88
2024/01/28 11:01:33;;;;;;;3.43;2.20;;;28.30;49.40;;;;;;5033407;28;20441;-87
2024/01/28 11:04:01;;;;;;;5.03;2.40;;;28.20;49.60;;;;;;5033451;28;20477;-87
2024/01/28 11:06:28;;;;;;;4.50;3.07;;;28.10;49.90;;;;;;5033283;28;20434;-87
2024/01/28 11:08:55;;;;;;;3.07;2.47;;;27.90;50.20;;;;;;5033063;28;20481;-87
2024/01/28 11:11:23;;;;;;;3.10;2.13;;;27.70;50.40;;;;;;5049467;28;20460;-88
2024/01/28 11:13:49;;;;;;;3.63;2.10;;;27.70;50.50;;;;;;5054915;28;20422;-86
2024/01/28 11:16:19;;;;;;;2.60;2.17;;;27.60;50.70;;;;;;5042893;28;20473;-87
2024/01/28 11:18:56;;;;;;;2.20;1.70;;;27.50;50.80;;;;;;5033041;28;20438;-87
2024/01/28 11:21:23;;;;;;;2.40;1.90;;;27.50;51.00;;;;;;5033038;28;20438;-87
2024/01/28 11:23:50;;;;;;;3.07;2.13;;;27.40;51.10;;;;;;5033298;28;20444;-87
2024/01/28 11:26:18;;;;;;;3.13;2.20;;;27.30;51.10;;;;;;5032910;28;20562;-88
2024/01/28 11:28:49;;;;;;;2.60;2.20;;;27.30;51.30;;;;;;5032973;28;20445;-87
2024/01/28 11:31:30;;;;;;;2.40;2.00;;;27.20;51.30;;;;;;5033011;28;20441;-87
2024/01/28 11:34:08;;;;;;;2.50;1.97;;;27.20;51.40;;;;;;5033275;28;20442;-87
2024/01/28 11:36:39;;;;;;;3.07;1.80;;;27.20;51.50;;;;;;5034924;28;20441;-91
2024/01/28 11:39:06;;;;;;;2.83;2.20;;;27.00;51.40;;;;;;5037123;28;20442;-90
2024/01/28 11:41:38;;;;;;;2.37;1.87;;;27.10;51.50;;;;;;5036561;28;20496;-87
2024/01/28 11:44:07;;;;;;;2.67;2.00;;;27.10;51.60;;;;;;5036617;28;20441;-87
2024/01/28 11:46:35;;;;;;;3.10;1.87;;;27.10;51.70;;;;;;5036726;28;20515;-87
2024/01/28 11:49:03;;;;;;;2.53;2.20;;;27.20;51.90;;;;;;5036664;28;20433;-87
2024/01/28 11:51:31;;;;;;;2.40;2.13;;;27.10;52.00;;;;;;5036518;28;20921;-87
2024/01/28 11:54:00;;;;;;;2.37;2.03;;;27.10;52.10;;;;;;5036331;28;21477;-86
2024/01/28 11:56:27;;;;;;;2.50;1.77;;;27.10;52.20;;;;;;5036357;28;20488;-86
2024/01/28 11:58:54;;;;;;;2.83;2.00;;;27.20;51.90;;;;;;5036329;28;20442;-87
2024/01/28 12:01:21;;;;;;;2.50;1.73;;;27.20;51.70;;;;;;5036353;28;20446;-86
2024/01/28 12:03:49;;;;;;;2.63;1.70;;;27.20;52.00;;;;;;5036430;28;20887;-86
2024/01/28 12:06:17;;;;;;;2.70;1.97;;;27.20;52.00;;;;;;5043021;28;20480;-87
2024/01/28 12:08:44;;;;;;;2.40;1.67;;;27.20;51.60;;;;;;5053676;28;20460;-86
2024/01/28 12:11:14;;;;;;;3.00;2.13;;;27.10;52.00;;;;;;5052617;28;20498;-85
2024/01/28 12:13:41;;;;;;;2.20;1.77;;;27.10;52.00;;;;;;5047091;28;20922;-85
2024/01/28 12:16:07;;;;;;;2.87;1.80;;;27.00;52.10;;;;;;5036422;28;20435;-90
2024/01/28 12:18:37;;;;;;;2.13;1.67;;;26.90;52.30;;;;;;5036491;28;20933;-87
2024/01/28 12:21:05;;;;;;;2.00;1.70;;;26.90;52.40;;;;;;5036046;28;20913;-91
2024/01/28 12:23:34;;;;;;;2.67;2.07;;;26.80;52.40;;;;;;5035502;28;20963;-88
2024/01/28 12:26:01;;;;;;;2.33;1.73;;;26.80;52.50;;;;;;5027867;28;20492;-93
2024/01/28 12:28:28;;;;;;;3.97;2.13;;;26.80;51.20;;;;;;5037273;28;20811;-90
